LiveATC.Net - Listen to live air traffic control over the Internet!


ICAO: KBNW  IATA: BNW   Airport: Boone Municipal Airport
City: Boone   State/Province: Iowa
Country: United States   Continent: North America
KBNW METAR Weather: KBNW 020255Z AUTO 13016KT 10SM FEW110 12/07 A2990 RMK AO2
KBNW Flight Activity (FlightAware)
KBNW Webcam:  (Airport Webcams) 
KBNW Airport Info   (iFlightPlanner)
KBNW VFR Sectional Chart   (iFlightPlanner) 
KBNW IFR Low Chart   (iFlightPlanner) 

KBNW CTAF
Feed Status: UP   Listeners: 0
Listen in your browser - HTML5 player (in browser, HTML5)
Click here to listen with your own player (launches your MP3 player)
Archive Access: KBNW CTAF
FacilityFrequency
Boone CTAF/UNICOM123.000

NOTICE

Unauthorized use prohibited. See LiveATC.net Terms of Service


Airport/ARTCC Code
Frequency Search
(e.g., 124.400, 128.75)
Site-wide search
 


Browse Feeds
Top 50 Feeds
Coverage Map
Bad Weather Areas

LiveATC FAQ
Offer LiveATC feed
Contact LiveATC.net
Press Inquiries

LiveATC on iPhone
LiveATC on Android

Windows Phone
Windows 8/10

LiveATC Mobile
(Mobile browser)

ATC Audio Archives
Interesting Recordings

LiveATC Forums


Home Page
About LiveATC.net
Make a Donation
Terms of Use
Privacy Policy

Canadian Air Freqs

AIRMETs/SIGMETs

FAA Airport Status
Nat'l Airspace Status
Arrival Demand Charts


Server Software By:
Icecast.org
Liquidsoap